Terminal Aerodrome Forecast
Issued by NWS

Home | Current Version | Previous Version | Text Only | Print | Product List | Glossary On
Versions: 1 2 3 4 5 6 7 8 9 10 11 12 13 14 15 16 17 18 19 20 21 22 23 24 25 26 27 28 29
000
FTAK31 PAFA 051728
TAFAOR
TAF
PAOR 051728Z 0518/0618 30003KT P6SM VCSH FEW004 OVC080
     FM060300 VRB03KT P6SM SCT050 BKN100
     FM061200 00000KT P6SM FEW250=

USA.gov is the U.S. government's official web portal to all federal, state and local government web resources and services.